Terminal Aerodrome Forecast
Issued by NWS

Home | Current Version | Previous Version | Text Only | Print | Product List | Glossary On
Versions: 1 2 3 4 5 6 7 8 9 10 11 12 13 14 15 16 17 18 19 20 21 22 23 24 25 26 27 28 29 30 31 32 33
000
FTUS41 KBOX 041234 AAA
TAFHYA
TAF AMD
KHYA 041234Z 0413/0512 01005KT 5SM BR FEW015 SCT026 BKN110
     FM041500 21011G24KT P6SM BKN060
     FM042300 23011KT P6SM VCTS BKN250CB
     FM050000 23010KT P6SM VCSH OVC250
     FM050200 24009KT P6SM BKN250
     FM050900 00000KT P6SM BKN250=

USA.gov is the U.S. government's official web portal to all federal, state and local government web resources and services.